createdAt,value
2018-02-19T00:00:10.437Z,101986.45
2018-02-19T00:02:36.595Z,101990.33
2018-02-19T00:05:02.852Z,101986.81
2018-02-19T00:07:29.050Z,101985.94
2018-02-19T00:09:55.182Z,101979.77
2018-02-19T00:12:21.385Z,101977.53
2018-02-19T00:14:47.542Z,101982.02
2018-02-19T00:17:13.764Z,101977.17
2018-02-19T00:19:39.939Z,101972.73
2018-02-19T00:22:06.136Z,101967.38
2018-02-19T00:24:32.298Z,101976.93
2018-02-19T00:26:58.532Z,101969.52
2018-02-19T00:29:24.699Z,101968.25
2018-02-19T00:31:50.858Z,101958.64
2018-02-19T00:34:17.029Z,101960.73
2018-02-19T00:36:43.208Z,101958.27
2018-02-19T00:39:09.348Z,101956.55
2018-02-19T00:41:35.543Z,101955.22
2018-02-19T00:44:01.801Z,101955.13
2018-02-19T00:46:27.999Z,101950.81
2018-02-19T00:48:54.168Z,101951.56
2018-02-19T00:51:20.392Z,101948.48
2018-02-19T00:53:46.548Z,101943.25
2018-02-19T00:56:12.756Z,101945.91
2018-02-19T00:58:38.973Z,101945.03
2018-02-19T01:01:05.309Z,101940.62
2018-02-19T01:03:31.376Z,101936.69
2018-02-19T01:05:57.600Z,101939.14
2018-02-19T01:08:23.850Z,101937.41
2018-02-19T01:10:50.092Z,101936.11
2018-02-19T01:13:16.281Z,101927.83
2018-02-19T01:15:42.455Z,101930.83
2018-02-19T01:18:08.680Z,101926.78
2018-02-19T01:20:34.861Z,101922.39
2018-02-19T01:23:01.079Z,101920.73
2018-02-19T01:25:27.269Z,101910.30
2018-02-19T01:27:53.465Z,101914.63
2018-02-19T01:30:19.630Z,101913.30
2018-02-19T01:32:45.835Z,101914.59
2018-02-19T01:35:12.091Z,101906.43
2018-02-19T01:37:38.358Z,101912.11
2018-02-19T01:40:04.508Z,101914.30
2018-02-19T01:42:30.745Z,101906.83
2018-02-19T01:44:56.915Z,101900.21
2018-02-19T01:47:23.183Z,101903.17
2018-02-19T01:50:01.481Z,101898.36
2018-02-19T01:52:27.687Z,101890.14
2018-02-19T01:54:53.838Z,101885.43
2018-02-19T01:57:20.047Z,101885.70
2018-02-19T01:59:46.252Z,101884.73
2018-02-19T02:02:12.449Z,101883.04
2018-02-19T02:04:38.710Z,101894.25
2018-02-19T02:07:04.896Z,101883.77
2018-02-19T02:09:31.112Z,101884.13
2018-02-19T02:11:57.335Z,101879.75
2018-02-19T02:14:23.469Z,101875.76
2018-02-19T02:16:49.692Z,101875.28
2018-02-19T02:19:15.922Z,101864.37
2018-02-19T02:21:42.104Z,101865.52
2018-02-19T02:24:08.303Z,101865.91
2018-02-19T02:26:34.513Z,101863.28
2018-02-19T02:29:00.682Z,101861.47
2018-02-19T02:31:26.918Z,101859.30
2018-02-19T02:33:53.102Z,101853.04
2018-02-19T02:36:19.278Z,101844.43
2018-02-19T02:38:45.460Z,101840.50
2018-02-19T02:41:11.670Z,101837.48
2018-02-19T02:43:37.852Z,101840.80
2018-02-19T02:46:04.036Z,101836.06
2018-02-19T02:48:37.160Z,101841.32
2018-02-19T02:51:03.378Z,101837.39
2018-02-19T02:53:29.510Z,101839.05
2018-02-19T02:55:55.656Z,101831.59
2018-02-19T02:58:21.843Z,101836.30
2018-02-19T03:00:48.039Z,101836.75
2018-02-19T03:03:14.213Z,101834.94
2018-02-19T03:05:40.470Z,101834.84
2018-02-19T03:08:06.641Z,101830.37
2018-02-19T03:10:32.928Z,101829.44
2018-02-19T03:12:59.093Z,101824.52
2018-02-19T03:15:25.240Z,101822.83
2018-02-19T03:17:51.480Z,101821.02
2018-02-19T03:20:17.699Z,101821.47
2018-02-19T03:22:43.870Z,101816.55
2018-02-19T03:25:10.049Z,101821.73
2018-02-19T03:27:36.201Z,101819.50
2018-02-19T03:30:02.526Z,101817.75
2018-02-19T03:32:28.691Z,101811.16
2018-02-19T03:34:54.923Z,101810.98
2018-02-19T03:37:21.088Z,101804.58
2018-02-19T03:39:47.301Z,101805.37
2018-02-19T03:42:13.479Z,101807.18
2018-02-19T03:44:39.637Z,101798.94
2018-02-19T03:47:05.826Z,101800.66
2018-02-19T03:49:32.044Z,101805.52
2018-02-19T03:51:58.282Z,101807.63
2018-02-19T03:54:24.509Z,101808.54
2018-02-19T03:56:50.724Z,101802.53
2018-02-19T03:59:16.888Z,101789.91
2018-02-19T04:01:43.132Z,101784.45
2018-02-19T04:04:09.276Z,101799.03
2018-02-19T04:06:35.547Z,101796.83
2018-02-19T04:09:01.759Z,101798.55
2018-02-19T04:11:27.983Z,101791.72
2018-02-19T04:13:54.233Z,101783.94
2018-02-19T04:16:20.386Z,101778.20
2018-02-19T04:18:46.565Z,101775.14
2018-02-19T04:21:12.796Z,101782.55
2018-02-19T04:23:38.953Z,101783.45
2018-02-19T04:26:05.120Z,101783.33
2018-02-19T04:28:31.338Z,101772.52
2018-02-19T04:30:57.590Z,101767.59
2018-02-19T04:33:23.761Z,101771.64
2018-02-19T04:35:49.968Z,101774.20
2018-02-19T04:38:16.620Z,101778.59
2018-02-19T04:40:42.852Z,101778.46
2018-02-19T04:43:09.883Z,101765.84
2018-02-19T04:45:46.801Z,101768.47
2018-02-19T04:48:12.919Z,101766.30
2018-02-19T04:50:39.139Z,101769.73
2018-02-19T04:53:05.347Z,101778.05
2018-02-19T04:55:31.487Z,101768.02
2018-02-19T04:57:57.674Z,101766.17
2018-02-19T05:00:23.904Z,101773.12
2018-02-19T05:02:50.044Z,101769.95
2018-02-19T05:05:16.272Z,101771.30
2018-02-19T05:07:42.798Z,101770.03
2018-02-19T05:10:08.984Z,101769.59
2018-02-19T05:12:35.127Z,101766.54
2018-02-19T05:15:01.303Z,101762.88
2018-02-19T05:17:27.459Z,101758.98
2018-02-19T05:19:53.674Z,101759.20
2018-02-19T05:22:19.880Z,101757.02
2018-02-19T05:24:46.065Z,101746.45
2018-02-19T05:27:12.216Z,101752.62
2018-02-19T05:29:38.414Z,101750.32
2018-02-19T05:32:04.635Z,101759.89
2018-02-19T05:34:30.764Z,101763.36
2018-02-19T05:36:56.934Z,101759.14
2018-02-19T05:39:23.194Z,101752.46
2018-02-19T05:41:49.392Z,101758.95
2018-02-19T05:44:15.576Z,101759.67
2018-02-19T05:46:41.724Z,101763.75
2018-02-19T05:49:07.954Z,101762.36
2018-02-19T05:51:34.193Z,101764.11
2018-02-19T05:54:00.331Z,101761.45
2018-02-19T05:56:26.501Z,101766.31
2018-02-19T05:58:52.721Z,101768.87
2018-02-19T06:01:18.965Z,101773.67
2018-02-19T06:03:45.159Z,101772.31
2018-02-19T06:06:11.341Z,101768.00
2018-02-19T06:08:37.574Z,101767.25
2018-02-19T06:11:03.824Z,101765.47
2018-02-19T06:13:29.982Z,101757.74
2018-02-19T06:15:56.154Z,101763.42
2018-02-19T06:18:22.398Z,101771.17
2018-02-19T06:20:48.713Z,101768.55
2018-02-19T06:23:15.962Z,101758.50
2018-02-19T06:25:42.149Z,101752.91
2018-02-19T06:28:08.346Z,101754.24
2018-02-19T06:30:34.609Z,101750.86
2018-02-19T06:33:00.769Z,101743.28
2018-02-19T06:35:27.036Z,101738.09
2018-02-19T06:37:53.227Z,101738.03
2018-02-19T06:40:19.457Z,101741.63
2018-02-19T06:42:46.017Z,101747.66
2018-02-19T06:45:12.229Z,101742.95
2018-02-19T06:47:38.473Z,101745.87
2018-02-19T06:50:04.731Z,101750.10
2018-02-19T06:52:30.984Z,101751.82
2018-02-19T06:54:57.142Z,101750.91
2018-02-19T06:57:23.398Z,101756.53
2018-02-19T06:59:49.553Z,101747.68
2018-02-19T07:02:15.806Z,101739.05
2018-02-19T07:04:41.984Z,101747.32
2018-02-19T07:07:08.141Z,101746.21
2018-02-19T07:09:34.355Z,101745.23
2018-02-19T07:12:00.627Z,101743.79
2018-02-19T07:14:26.778Z,101742.13
2018-02-19T07:16:52.997Z,101739.08
2018-02-19T07:19:19.213Z,101734.73
2018-02-19T07:21:45.466Z,101727.53
2018-02-19T07:24:11.648Z,101729.88
2018-02-19T07:26:37.797Z,101733.64
2018-02-19T07:29:04.059Z,101739.77
2018-02-19T07:31:30.378Z,101737.50
2018-02-19T07:33:56.569Z,101745.20
2018-02-19T07:36:22.761Z,101739.68
2018-02-19T07:38:49.002Z,101737.95
2018-02-19T07:41:15.211Z,101734.94
2018-02-19T07:43:41.382Z,101735.42
2018-02-19T07:46:07.619Z,101735.39
2018-02-19T07:48:33.759Z,101742.48
2018-02-19T07:50:59.988Z,101742.58
2018-02-19T07:53:26.149Z,101744.94
2018-02-19T07:55:52.284Z,101739.52
2018-02-19T07:58:18.475Z,101748.23
2018-02-19T08:00:44.705Z,101740.15
2018-02-19T08:03:10.870Z,101739.79
2018-02-19T08:05:37.084Z,101732.13
2018-02-19T08:08:03.332Z,101727.84
2018-02-19T08:10:29.547Z,101725.30
2018-02-19T08:12:55.745Z,101726.94
2018-02-19T08:15:21.897Z,101728.86
2018-02-19T08:17:48.149Z,101720.68
2018-02-19T08:20:14.361Z,101719.17
2018-02-19T08:22:40.662Z,101718.27
2018-02-19T08:25:06.869Z,101710.84
2018-02-19T08:27:33.033Z,101719.59
2018-02-19T08:29:59.302Z,101717.27
2018-02-19T08:32:25.568Z,101716.81
2018-02-19T08:34:51.725Z,101714.22
2018-02-19T08:37:17.965Z,101714.31
2018-02-19T08:39:44.224Z,101710.95
2018-02-19T08:42:10.415Z,101713.31
2018-02-19T08:44:36.579Z,101706.34
2018-02-19T08:47:02.790Z,101699.84
2018-02-19T08:49:28.979Z,101703.95
2018-02-19T08:51:55.219Z,101708.69
2018-02-19T08:54:21.424Z,101708.98
2018-02-19T08:56:47.647Z,101705.88
2018-02-19T08:59:13.824Z,101707.27
2018-02-19T09:01:40.041Z,101698.34
2018-02-19T09:04:06.255Z,101699.40
2018-02-19T09:06:32.404Z,101693.95
2018-02-19T09:08:58.592Z,101697.42
2018-02-19T09:11:24.781Z,101701.36
2018-02-19T09:13:50.894Z,101699.49
2018-02-19T09:16:17.070Z,101695.68
2018-02-19T09:18:43.192Z,101694.86
2018-02-19T09:21:09.308Z,101705.73
2018-02-19T09:23:35.444Z,101705.91
2018-02-19T09:26:01.623Z,101703.67
2018-02-19T09:28:27.780Z,101700.42
2018-02-19T09:30:53.910Z,101688.40
2018-02-19T09:33:20.039Z,101693.95
2018-02-19T09:35:46.220Z,101686.22
2018-02-19T09:38:12.379Z,101678.73
2018-02-19T09:40:38.515Z,101677.52
2018-02-19T09:43:04.675Z,101673.71
2018-02-19T09:45:30.873Z,101678.45
2018-02-19T09:47:57.001Z,101681.62
2018-02-19T09:50:23.192Z,101676.92
2018-02-19T09:52:49.326Z,101674.08
2018-02-19T09:55:15.500Z,101672.94
2018-02-19T09:57:41.668Z,101670.38
2018-02-19T10:00:07.817Z,101673.52
2018-02-19T10:02:33.940Z,101673.20
2018-02-19T10:05:00.088Z,101678.59
2018-02-19T10:07:26.243Z,101677.27
2018-02-19T10:09:52.375Z,101674.45
2018-02-19T10:12:18.500Z,101669.61
2018-02-19T10:14:44.757Z,101678.10
2018-02-19T10:17:10.927Z,101666.95
2018-02-19T10:19:37.028Z,101671.39
2018-02-19T10:22:03.130Z,101671.55
2018-02-19T10:24:29.281Z,101674.80
2018-02-19T10:26:55.464Z,101668.27
2018-02-19T10:29:21.594Z,101668.28
2018-02-19T10:31:47.728Z,101661.56
2018-02-19T10:34:13.838Z,101657.28
2018-02-19T10:36:39.994Z,101656.72
2018-02-19T10:39:06.179Z,101650.03
2018-02-19T10:41:32.302Z,101658.89
2018-02-19T10:43:58.430Z,101657.16
2018-02-19T10:46:24.656Z,101655.19
2018-02-19T10:48:50.759Z,101643.20
2018-02-19T10:51:16.903Z,101649.92
2018-02-19T10:53:43.053Z,101641.45
2018-02-19T10:56:09.231Z,101638.59
2018-02-19T10:58:35.389Z,101629.94
2018-02-19T11:01:01.542Z,101627.27
2018-02-19T11:03:27.676Z,101633.41
2018-02-19T11:05:53.838Z,101629.23
2018-02-19T11:08:20.021Z,101628.73
2018-02-19T11:10:46.108Z,101625.52
2018-02-19T11:13:12.228Z,101631.04
2018-02-19T11:15:38.398Z,101633.80
2018-02-19T11:18:04.513Z,101631.47
2018-02-19T11:20:30.723Z,101634.84
2018-02-19T11:22:56.890Z,101636.50
2018-02-19T11:25:23.141Z,101638.34
2018-02-19T11:27:49.380Z,101640.58
2018-02-19T11:30:15.535Z,101632.06
2018-02-19T11:32:41.714Z,101636.16
2018-02-19T11:35:07.953Z,101631.86
2018-02-19T11:37:34.211Z,101628.91
2018-02-19T11:40:00.446Z,101630.69
2018-02-19T11:42:26.616Z,101626.24
2018-02-19T11:44:52.784Z,101618.95
2018-02-19T11:47:19.009Z,101615.12
2018-02-19T11:49:45.171Z,101622.68
2018-02-19T11:52:11.384Z,101614.84
2018-02-19T11:54:37.630Z,101610.45
2018-02-19T11:57:03.959Z,101609.26
2018-02-19T11:59:30.147Z,101608.41
2018-02-19T12:01:56.315Z,101604.61
2018-02-19T12:04:22.514Z,101604.09
2018-02-19T12:06:48.728Z,101605.63
2018-02-19T12:09:14.998Z,101604.91
2018-02-19T12:11:41.164Z,101602.86
2018-02-19T12:14:07.330Z,101599.06
2018-02-19T12:16:33.601Z,101593.64
2018-02-19T12:18:59.798Z,101597.05
2018-02-19T12:21:26.008Z,101589.63
2018-02-19T12:23:52.270Z,101600.09
2018-02-19T12:26:18.499Z,101598.05
2018-02-19T12:28:44.640Z,101595.44
2018-02-19T12:31:10.791Z,101593.77
2018-02-19T12:33:36.981Z,101596.37
2018-02-19T12:36:03.203Z,101594.72
2018-02-19T12:38:29.424Z,101587.70
2018-02-19T12:40:55.651Z,101585.95
2018-02-19T12:43:28.685Z,101583.86
2018-02-19T12:45:54.820Z,101576.25
2018-02-19T12:48:21.039Z,101577.73
2018-02-19T12:50:47.272Z,101576.47
2018-02-19T12:53:13.430Z,101567.04
2018-02-19T12:55:39.581Z,101563.75
2018-02-19T12:58:05.750Z,101562.14
2018-02-19T13:00:31.938Z,101555.77
2018-02-19T13:02:58.083Z,101551.92
2018-02-19T13:05:24.299Z,101552.17
2018-02-19T13:07:50.499Z,101547.45
2018-02-19T13:10:16.685Z,101544.48
2018-02-19T13:12:42.827Z,101544.22
2018-02-19T13:15:08.991Z,101551.61
2018-02-19T13:17:35.133Z,101549.13
2018-02-19T13:20:01.334Z,101539.44
2018-02-19T13:22:27.477Z,101535.56
2018-02-19T13:24:53.594Z,101534.27
2018-02-19T13:27:19.785Z,101540.23
2018-02-19T13:29:45.988Z,101545.34
2018-02-19T13:32:12.120Z,101544.56
2018-02-19T13:34:38.285Z,101535.07
2018-02-19T13:37:04.416Z,101537.41
2018-02-19T13:39:30.621Z,101541.64
2018-02-19T13:41:56.838Z,101532.01
2018-02-19T13:44:23.017Z,101534.83
2018-02-19T13:46:49.162Z,101533.98
2018-02-19T13:49:15.357Z,101533.59
2018-02-19T13:51:41.561Z,101531.50
2018-02-19T13:54:07.788Z,101524.98
2018-02-19T13:56:33.972Z,101522.80
2018-02-19T13:59:00.154Z,101518.37
2018-02-19T14:01:26.403Z,101516.79
2018-02-19T14:03:52.548Z,101512.31
2018-02-19T14:06:18.682Z,101518.70
2018-02-19T14:08:44.954Z,101515.08
2018-02-19T14:11:11.228Z,101504.36
2018-02-19T14:13:37.422Z,101507.06
2018-02-19T14:16:03.594Z,101515.95
2018-02-19T14:18:29.777Z,101505.54
2018-02-19T14:20:56.011Z,101506.86
2018-02-19T14:23:22.196Z,101509.88
2018-02-19T14:25:48.376Z,101509.38
2018-02-19T14:28:14.583Z,101515.43
2018-02-19T14:30:40.805Z,101512.52
2018-02-19T14:33:06.945Z,101500.80
2018-02-19T14:35:33.104Z,101495.84
2018-02-19T14:37:59.316Z,101494.55
2018-02-19T14:40:25.493Z,101493.95
2018-02-19T14:42:51.634Z,101490.50
2018-02-19T14:45:17.823Z,101490.02
2018-02-19T14:47:43.977Z,101488.62
2018-02-19T14:50:10.177Z,101486.84
2018-02-19T14:52:36.471Z,101490.81
2018-02-19T14:55:02.688Z,101501.24
2018-02-19T14:57:28.816Z,101499.55
2018-02-19T14:59:54.987Z,101495.63
2018-02-19T15:02:21.156Z,101494.77
2018-02-19T15:04:47.289Z,101495.06
2018-02-19T15:07:13.602Z,101494.05
2018-02-19T15:09:39.889Z,101481.08
2018-02-19T15:12:06.089Z,101480.23
2018-02-19T15:14:32.254Z,101474.63
2018-02-19T15:16:58.435Z,101474.88
2018-02-19T15:19:24.588Z,101468.48
2018-02-19T15:21:50.803Z,101467.61
2018-02-19T15:24:16.928Z,101463.66
2018-02-19T15:26:43.064Z,101461.78
2018-02-19T15:29:09.251Z,101463.75
2018-02-19T15:31:35.441Z,101463.30
2018-02-19T15:34:01.632Z,101464.13
2018-02-19T15:36:27.765Z,101460.10
2018-02-19T15:38:53.967Z,101456.73
2018-02-19T15:41:20.155Z,101450.22
2018-02-19T15:43:46.383Z,101453.22
2018-02-19T15:46:12.498Z,101450.20
2018-02-19T15:48:38.700Z,101451.43
2018-02-19T15:51:04.881Z,101450.54
2018-02-19T15:53:31.026Z,101443.98
2018-02-19T15:55:57.182Z,101445.67
2018-02-19T15:58:23.315Z,101441.21
2018-02-19T16:00:49.513Z,101438.25
2018-02-19T16:03:15.701Z,101442.20
2018-02-19T16:05:41.852Z,101438.27
2018-02-19T16:08:08.106Z,101442.09
2018-02-19T16:10:34.265Z,101445.56
2018-02-19T16:13:00.405Z,101444.20
2018-02-19T16:15:26.596Z,101440.67
2018-02-19T16:17:52.718Z,101446.78
2018-02-19T16:20:18.864Z,101452.02
2018-02-19T16:22:45.889Z,101445.48
2018-02-19T16:25:12.027Z,101449.38
2018-02-19T16:27:38.174Z,101449.31
2018-02-19T16:30:04.373Z,101444.94
2018-02-19T16:32:30.615Z,101442.33
2018-02-19T16:34:56.866Z,101440.65
2018-02-19T16:37:23.061Z,101438.81
2018-02-19T16:39:49.292Z,101443.97
2018-02-19T16:42:15.452Z,101441.36
2018-02-19T16:44:41.601Z,101444.86
2018-02-19T16:47:07.797Z,101435.62
2018-02-19T16:49:33.925Z,101440.80
2018-02-19T16:52:00.156Z,101439.92
2018-02-19T16:54:26.312Z,101443.89
2018-02-19T16:56:52.454Z,101440.72
2018-02-19T16:59:18.616Z,101438.17
2018-02-19T17:01:44.840Z,101436.00
2018-02-19T17:04:11.006Z,101437.28
2018-02-19T17:06:37.151Z,101435.53
2018-02-19T17:09:03.403Z,101444.17
2018-02-19T17:11:29.598Z,101438.56
2018-02-19T17:13:55.745Z,101439.44
2018-02-19T17:16:21.926Z,101442.44
2018-02-19T17:18:48.081Z,101435.47
2018-02-19T17:21:17.204Z,101440.19
2018-02-19T17:23:43.412Z,101445.41
2018-02-19T17:26:09.559Z,101449.31
2018-02-19T17:28:35.708Z,101448.40
2018-02-19T17:31:01.960Z,101451.89
2018-02-19T17:33:28.178Z,101449.74
2018-02-19T17:35:54.387Z,101444.95
2018-02-19T17:38:20.637Z,101445.38
2018-02-19T17:40:46.821Z,101449.27
2018-02-19T17:43:13.005Z,101445.38
2018-02-19T17:45:39.152Z,101455.39
2018-02-19T17:48:05.385Z,101463.60
2018-02-19T17:50:31.589Z,101462.28
2018-02-19T17:52:57.817Z,101467.49
2018-02-19T17:55:23.974Z,101460.13
2018-02-19T17:57:50.132Z,101460.15
2018-02-19T18:00:16.345Z,101462.34
2018-02-19T18:02:42.546Z,101456.67
2018-02-19T18:05:08.717Z,101449.25
2018-02-19T18:07:34.886Z,101447.45
2018-02-19T18:10:01.119Z,101451.36
2018-02-19T18:12:27.321Z,101450.97
2018-02-19T18:14:53.517Z,101461.33
2018-02-19T18:17:19.681Z,101458.19
2018-02-19T18:19:45.862Z,101458.61
2018-02-19T18:22:12.088Z,101459.10
2018-02-19T18:24:38.250Z,101460.39
2018-02-19T18:27:04.453Z,101456.48
2018-02-19T18:29:30.651Z,101446.86
2018-02-19T18:31:56.889Z,101447.28
2018-02-19T18:34:23.093Z,101450.36
2018-02-19T18:36:49.250Z,101454.60
2018-02-19T18:39:15.508Z,101447.64
2018-02-19T18:41:41.728Z,101457.68
2018-02-19T18:44:08.005Z,101455.91
2018-02-19T18:46:34.205Z,101452.39
2018-02-19T18:49:00.359Z,101450.14
2018-02-19T18:51:26.580Z,101451.09
2018-02-19T18:53:52.795Z,101453.26
2018-02-19T18:56:18.966Z,101452.39
2018-02-19T18:58:45.191Z,101453.69
2018-02-19T19:01:11.398Z,101451.09
2018-02-19T19:03:37.614Z,101451.45
2018-02-19T19:06:03.869Z,101449.74
2018-02-19T19:08:42.256Z,101452.35
2018-02-19T19:11:08.427Z,101449.35
2018-02-19T19:13:34.646Z,101446.77
2018-02-19T19:16:01.081Z,101452.84
2018-02-19T19:18:27.268Z,101449.41
2018-02-19T19:20:53.436Z,101459.80
2018-02-19T19:23:19.958Z,101453.66
2018-02-19T19:25:46.157Z,101451.02
2018-02-19T19:28:12.332Z,101453.09
2018-02-19T19:30:38.557Z,101457.01
2018-02-19T19:33:04.810Z,101453.53
2018-02-19T19:35:41.487Z,101454.37
2018-02-19T19:38:15.942Z,101460.44
2018-02-19T19:40:42.304Z,101459.63
2018-02-19T19:43:08.558Z,101454.91
2018-02-19T19:45:42.491Z,101458.33
2018-02-19T19:48:08.661Z,101453.63
2018-02-19T19:50:34.922Z,101457.06
2018-02-19T19:53:01.537Z,101453.66
2018-02-19T19:55:27.675Z,101451.47
2018-02-19T19:57:53.892Z,101451.94
2018-02-19T20:00:20.129Z,101444.14
2018-02-19T20:03:10.051Z,101444.52
2018-02-19T20:08:29.287Z,101435.72
2018-02-19T20:13:57.844Z,101440.95
2018-02-19T20:16:24.874Z,101443.51
2018-02-19T20:19:04.040Z,101439.58
2018-02-19T20:21:30.209Z,101445.64
2018-02-19T20:26:54.932Z,101442.11
2018-02-19T20:32:23.790Z,101443.34
2018-02-19T20:34:50.043Z,101447.23
2018-02-19T20:40:18.625Z,101442.41
2018-02-19T20:45:37.780Z,101445.48
2018-02-19T20:48:03.953Z,101448.16
2018-02-19T20:50:30.164Z,101455.56
2018-02-19T20:52:56.438Z,101454.66
2018-02-19T20:55:22.647Z,101459.44
2018-02-19T21:00:51.079Z,101454.97
2018-02-19T21:03:17.293Z,101454.13
2018-02-19T21:05:43.521Z,101449.33
2018-02-19T21:08:09.763Z,101454.14
2018-02-19T21:10:36.004Z,101443.21
2018-02-19T21:13:02.185Z,101444.09
2018-02-19T21:18:31.410Z,101446.52
2018-02-19T21:20:57.616Z,101448.31
2018-02-19T21:23:23.826Z,101451.75
2018-02-19T21:28:52.963Z,101452.20
2018-02-19T21:31:19.141Z,101445.16
2018-02-19T21:40:00.541Z,101447.29
2018-02-19T21:42:26.832Z,101440.34
2018-02-19T21:44:53.029Z,101446.39
2018-02-19T21:47:19.191Z,101455.03
2018-02-19T21:49:45.372Z,101453.73
2018-02-19T21:52:11.552Z,101452.02
2018-02-19T21:57:40.287Z,101456.80
2018-02-19T22:03:21.947Z,101455.02
2018-02-19T22:05:48.165Z,101452.84
2018-02-19T22:08:14.344Z,101462.83
2018-02-19T22:10:48.524Z,101458.42
2018-02-19T22:13:14.763Z,101458.92
2018-02-19T22:15:47.327Z,101469.81
2018-02-19T22:21:27.096Z,101463.53
2018-02-19T22:26:56.170Z,101467.97
2018-02-19T22:35:28.100Z,101471.36
2018-02-19T22:40:57.013Z,101479.71
2018-02-19T22:43:23.179Z,101479.31
2018-02-19T22:51:55.194Z,101472.35
2018-02-19T22:54:22.208Z,101477.54
2018-02-19T22:56:48.391Z,101477.11
2018-02-19T22:59:36.980Z,101483.16
2018-02-19T23:02:11.040Z,101485.31
2018-02-19T23:04:43.778Z,101489.63
2018-02-19T23:10:13.386Z,101495.23
2018-02-19T23:12:39.553Z,101499.62
2018-02-19T23:21:11.101Z,101507.38
2018-02-19T23:23:37.366Z,101507.75
2018-02-19T23:26:03.829Z,101505.69
2018-02-19T23:28:29.956Z,101504.86
2018-02-19T23:30:56.128Z,101511.70
2018-02-19T23:33:22.304Z,101514.80
2018-02-19T23:35:48.850Z,101511.30
2018-02-19T23:38:15.103Z,101507.84
2018-02-19T23:40:41.233Z,101502.27
2018-02-19T23:43:07.362Z,101507.84
